Geyser, Montana
Current Conditions -  °F | °C
As of 8:56 PM on Friday 24 Oct 2014 (Local Time) from KGFA Reporting Station
Overcast Overcast  
Wind Chill: 47°   Ceiling: 9500
Heat Index: 47°   Visibility: 10mi
Dew Point: 35°   Wind: 1mph
Humidity: 63%   Direction: NA
Pressure: 30.09"   Gusts: NA
Location:  47.25°N, 110.5°W
Report Text: KGFA 250256Z AUTO VRB01KT 10SM OVC095 09/02 A3009 RMK AO2 SLP206 T00860018 51010
Loading
Personal Weather Stations






























Interactive Weather Map
Tropical Storm Tracking
New forecast layout! Learn more

10-Day Weather Forecast

Advertisements
Track Severe Weather on mobile